Pagrindinis puslapis
METAR-TAF:

METAR-TAF

Oro uostai :

Talara, Peru

platuma: 04-34S, ilguma: 081-15W, Aukštis: 85 m

Dabartinis oras

Ataskaita buvo paskelbta 39 minutes, ne 23:00 UTC
Temperatūra 23°C
Drėgmė 73%
Slėgis 1010 hPa
Matomumas 10 km arba daugiau
Su prošvaistėmis ne aukštis 5000 ft

METAR: SPYL 252300Z /////KT 9999 BKN050 23/18 Q1010 RMK BIRD HAZARD RWY 17/35 PP000

Laikas: 18:39 (23:39 UTC)

Prognozė

Ataskaita buvo paskelbta 7 valandos ir 9 minutes, ne 16:30 UTC
Prognozė galioja nuo 25 metu 18 UTC su 26 metu 18 UTC
Vėjas 16 kt iš Pietų
Matomumas 10 km arba daugiau
nėra debesų žemiau 1500 m ir nėra kamuolinių lietaus debesų
Laikinai
nuo 25 metu 18 UTC su 25 metu 20 UTC
Išsisklaidę debesys ne aukštis 5000 ft
Laikinai
nuo 26 metu 12 UTC su 26 metu 14 UTC
Vėjas 6 kt iš Pietų/Pietryčių
Su prošvaistėmis ne aukštis 4000 ft

TAF: SPYL 251630Z 2518/2618 18016KT CAVOK TX29/2519Z TN20/2611Z TEMPO 2518/2520 SCT050 TEMPO 2612/2614 16006KT BKN040

Orai ataskaitas ir orų prognozės (METAR, TAF).

turimą stotys yra geltonos ir raudonos taškus žemėlapyje.

Perkelti pele per norėdami pamatyti stoties vardą.

Tada spustelėkite, norėdami matyti oro stebėjimo ir prognozės.

Norėdami pakeisti žemėlapį: spustelėkite ant žalios mygtukų su juodo kryžiaus žemyn,; žalią mygtuką su brūkšneliu, jei norite nutolinti; arba žalių rodyklių gretimoms žemėlapius.


METAR-TAF: